Time;durP1;ratioP1;P1;durP2;ratioP2;P2;SDS_P1;SDS_P2;PMS_P1;PMS_P2;Temp;Humidity;BMP_temperature;BMP_pressure;BME280_temperature;BME280_humidity;BME280_pressure;Samples;Min_cycle;Max_cycle;Signal;HPM_P1;HPM_P2
2022/12/23 00:01:26;;;;;;;23.00;14.45;;;;;;;10.39;88.17;100238.78;5091810;28;20481;-58
2022/12/23 00:03:55;;;;;;;21.60;14.75;;;;;;;10.41;88.21;100250.44;5083360;28;20032;-58
2022/12/23 00:06:20;;;;;;;22.52;15.13;;;;;;;10.41;88.29;100249.63;5092372;28;20089;-58
2022/12/23 00:08:46;;;;;;;22.20;15.45;;;;;;;10.40;88.37;100248.78;5092165;28;20020;-58
2022/12/23 00:11:15;;;;;;;25.77;16.05;;;;;;;10.42;88.44;100251.31;5091730;28;20107;-58
2022/12/23 00:16:25;;;;;;;24.15;16.70;;;;;;;10.41;88.25;100260.72;5092560;28;20039;-58
2022/12/23 00:18:52;;;;;;;22.95;18.02;;;;;;;10.39;88.57;100265.72;5090558;28;20032;-58
2022/12/23 00:21:17;;;;;;;21.92;17.63;;;;;;;10.37;88.33;100268.72;5084164;28;20040;-58
2022/12/23 00:23:45;;;;;;;23.27;18.15;;;;;;;10.39;88.43;100266.53;5091124;28;20028;-58
2022/12/23 00:26:22;;;;;;;27.60;19.20;;;;;;;10.40;88.40;100268.19;5091478;28;20040;-59
2022/12/23 00:28:49;;;;;;;28.90;20.13;;;;;;;10.43;88.11;100272.41;5092048;28;20020;-58
2022/12/23 00:31:17;;;;;;;29.70;19.77;;;;;;;10.44;88.10;100274.06;5091506;28;20025;-58
2022/12/23 00:33:45;;;;;;;29.70;19.58;;;;;;;10.45;88.06;100273.81;5092315;28;20205;-59
2022/12/23 00:36:18;;;;;;;27.73;19.92;;;;;;;10.44;88.17;100274.88;5091243;28;20082;-59
2022/12/23 00:44:12;;;;;;;31.55;19.98;;;;;;;10.42;87.95;100282.66;5090481;28;20097;-59
2022/12/23 00:46:37;;;;;;;30.88;19.90;;;;;;;10.43;88.21;100289.88;5091006;28;20032;-59
2022/12/23 00:51:47;;;;;;;31.25;18.55;;;;;;;10.43;88.06;100297.38;5071014;28;20047;-58
2022/12/23 00:54:13;;;;;;;28.17;18.60;;;;;;;10.42;88.13;100302.09;5070901;28;20032;-58
2022/12/23 00:56:38;;;;;;;27.90;17.95;;;;;;;10.39;88.24;100307.31;5089798;28;20086;-58
2022/12/23 00:59:03;;;;;;;29.70;17.98;;;;;;;10.42;88.01;100304.84;5090524;28;20479;-58
2022/12/23 01:06:58;;;;;;;27.75;18.45;;;;;;;10.46;87.94;100317.09;5090942;28;20043;-58
2022/12/23 01:09:24;;;;;;;29.33;18.48;;;;;;;10.48;87.65;100314.03;5091052;28;20387;-58
2022/12/23 01:11:49;;;;;;;31.40;19.95;;;;;;;10.47;87.66;100315.97;5091073;28;20082;-59
2022/12/23 01:14:16;;;;;;;29.45;19.70;;;;;;;10.47;87.50;100317.94;5088547;28;20040;-59
2022/12/23 01:16:42;;;;;;;27.80;19.73;;;;;;;10.48;87.37;100319.59;5090767;28;20028;-58
2022/12/23 01:19:07;;;;;;;25.50;18.98;;;;;;;10.47;87.46;100313.22;5077729;28;20758;-59
2022/12/23 01:21:33;;;;;;;28.75;19.42;;;;;;;10.46;87.42;100306.00;5070654;28;20046;-59
2022/12/23 01:23:58;;;;;;;27.92;19.25;;;;;;;10.48;87.43;100322.38;5070755;28;20112;-58
2022/12/23 01:26:24;;;;;;;31.98;20.48;;;;;;;10.48;87.19;100316.81;5070639;28;20056;-58
2022/12/23 01:28:56;;;;;;;28.63;19.95;;;;;;;10.50;87.38;100317.41;5078318;28;20028;-58
2022/12/23 01:31:25;;;;;;;30.90;22.17;;;;;;;10.48;87.36;100323.19;5090383;28;20085;-58
2022/12/23 01:33:51;;;;;;;32.22;20.25;;;;;;;10.50;87.43;100326.56;5087240;28;20066;-58
2022/12/23 01:36:17;;;;;;;28.80;20.08;;;;;;;10.47;87.70;100321.53;5070543;28;20453;-58
2022/12/23 01:38:42;;;;;;;31.85;20.88;;;;;;;10.50;87.68;100320.19;5070356;28;20039;-58
2022/12/23 01:41:07;;;;;;;27.70;21.00;;;;;;;10.50;87.67;100318.22;5069659;28;20036;-58
2022/12/23 01:43:50;;;;;;;31.23;20.95;;;;;;;10.51;87.82;100328.22;5070607;28;20025;-58
2022/12/23 01:46:16;;;;;;;33.67;20.77;;;;;;;10.49;87.60;100324.91;5082132;28;20039;-58
2022/12/23 01:48:46;;;;;;;31.10;21.50;;;;;;;10.49;87.63;100332.34;5080591;28;20021;-58
2022/12/23 01:51:28;;;;;;;27.52;21.73;;;;;;;10.49;87.85;100329.56;5075997;28;20082;-58
2022/12/23 01:53:59;;;;;;;32.75;21.63;;;;;;;10.49;87.55;100336.00;5090003;28;20566;-58
2022/12/23 01:56:31;;;;;;;31.50;22.88;;;;;;;10.46;87.92;100339.28;5090012;28;20523;-58
2022/12/23 01:59:01;;;;;;;32.15;21.77;;;;;;;10.46;87.84;100347.63;5090132;28;20036;-58
2022/12/23 02:04:18;;;;;;;31.15;21.85;;;;;;;10.49;87.78;100358.19;5089755;28;20035;-58
2022/12/23 02:09:37;;;;;;;30.52;22.70;;;;;;;10.45;88.00;100354.28;5086229;28;20059;-58
2022/12/23 02:12:36;;;;;;;27.00;23.47;;;;;;;10.50;87.86;100357.09;5090303;28;20027;-58
2022/12/23 02:18:19;;;;;;;30.17;23.23;;;;;;;10.45;88.04;100361.72;5088988;28;20433;-58
2022/12/23 02:21:00;;;;;;;30.10;22.73;;;;;;;10.48;87.80;100361.22;5089302;28;20040;-58
2022/12/23 02:23:59;;;;;;;29.88;22.98;;;;;;;10.47;88.13;100354.81;5089667;28;20028;-58
2022/12/23 02:26:36;;;;;;;29.58;22.48;;;;;;;10.44;88.03;100360.91;5079829;28;20498;-59
2022/12/23 02:29:37;;;;;;;28.65;21.90;;;;;;;10.48;88.07;100359.28;5069857;28;20558;-58
2022/12/23 02:32:27;;;;;;;27.98;20.88;;;;;;;10.43;88.25;100375.88;5069098;28;20119;-58
2022/12/23 02:35:05;;;;;;;25.88;20.55;;;;;;;10.43;88.10;100375.06;5068989;28;20031;-59
2022/12/23 02:37:37;;;;;;;26.45;21.40;;;;;;;10.45;87.96;100382.03;5083566;28;20528;-58
2022/12/23 02:40:13;;;;;;;22.90;19.60;;;;;;;10.44;88.18;100396.97;5088579;28;20032;-58
2022/12/23 02:42:49;;;;;;;25.92;20.30;;;;;;;10.41;88.04;100403.03;5082195;28;20028;-58
2022/12/23 02:45:58;;;;;;;26.15;19.73;;;;;;;10.42;88.41;100407.50;5069505;28;20033;-58
2022/12/23 02:48:52;;;;;;;25.90;20.48;;;;;;;10.43;88.11;100414.72;5079085;28;20047;-58
2022/12/23 02:51:21;;;;;;;24.13;19.85;;;;;;;10.41;87.98;100421.63;5069782;28;20040;-58
2022/12/23 02:53:51;;;;;;;24.50;19.67;;;;;;;10.41;88.41;100424.41;5078015;28;20024;-58
2022/12/23 02:56:18;;;;;;;25.73;19.17;;;;;;;10.44;88.13;100426.66;5087540;28;20056;-59
2022/12/23 02:58:52;;;;;;;24.70;18.88;;;;;;;10.45;87.97;100433.88;5086305;28;20032;-58
2022/12/23 03:01:19;;;;;;;22.25;18.33;;;;;;;10.43;87.95;100422.22;5083091;28;20032;-59
2022/12/23 03:03:46;;;;;;;24.58;19.75;;;;;;;10.41;88.15;100424.41;5090072;28;20124;-58
2022/12/23 03:06:37;;;;;;;23.90;19.25;;;;;;;10.44;88.40;100421.09;5088333;28;20562;-58
2022/12/23 03:09:02;;;;;;;24.90;18.73;;;;;;;10.42;88.11;100424.16;5078080;28;20048;-58
2022/12/23 03:12:02;;;;;;;22.67;19.85;;;;;;;10.44;88.15;100438.59;5088553;28;20036;-58
2022/12/23 03:14:35;;;;;;;21.38;17.67;;;;;;;10.42;88.34;100435.25;5073902;28;20040;-59
2022/12/23 03:17:19;;;;;;;21.98;18.20;;;;;;;10.41;87.81;100421.63;5085784;28;20044;-58
2022/12/23 03:19:50;;;;;;;22.98;18.20;;;;;;;10.39;87.91;100435.78;5073910;28;20037;-58
2022/12/23 03:22:23;;;;;;;24.67;19.20;;;;;;;10.39;88.01;100424.69;5086629;28;20118;-59
2022/12/23 03:24:59;;;;;;;24.02;19.08;;;;;;;10.43;87.85;100428.59;5087679;28;20058;-59
2022/12/23 03:27:43;;;;;;;22.77;18.33;;;;;;;10.45;87.95;100431.97;5087209;28;20476;-58
2022/12/23 03:30:15;;;;;;;23.38;18.52;;;;;;;10.45;87.81;100415.31;5087035;28;20034;-59
2022/12/23 03:32:52;;;;;;;27.00;18.42;;;;;;;10.47;87.75;100409.50;5088880;28;20600;-58
2022/12/23 03:35:26;;;;;;;23.73;18.05;;;;;;;10.47;87.81;100409.50;5073619;28;20040;-58
2022/12/23 03:37:53;;;;;;;23.15;18.73;;;;;;;10.47;87.66;100415.03;5076524;28;20055;-58
2022/12/23 03:40:34;;;;;;;27.48;18.75;;;;;;;10.49;87.63;100421.16;5074262;28;20476;-58
2022/12/23 03:43:06;;;;;;;23.40;18.88;;;;;;;10.43;87.46;100417.50;5091241;28;20593;-58
2022/12/23 03:45:40;;;;;;;26.02;19.13;;;;;;;10.42;87.86;100417.78;5089831;28;20103;-58
2022/12/23 03:48:35;;;;;;;25.90;18.98;;;;;;;10.41;87.50;100411.38;5092087;28;20387;-58
2022/12/23 03:51:08;;;;;;;22.58;18.20;;;;;;;10.44;87.63;100429.44;5071921;28;20040;-59
2022/12/23 03:53:39;;;;;;;25.00;18.83;;;;;;;10.41;87.64;100421.63;5072344;28;20583;-58
2022/12/23 03:56:10;;;;;;;22.90;19.33;;;;;;;10.39;87.72;100430.22;5090246;28;20028;-58
2022/12/23 03:58:42;;;;;;;24.88;19.70;;;;;;;10.39;87.58;100432.16;5091263;28;20024;-59
2022/12/23 04:01:23;;;;;;;26.48;19.70;;;;;;;10.43;87.81;100425.00;5090267;28;20039;-58
2022/12/23 04:04:00;;;;;;;25.20;19.25;;;;;;;10.45;87.89;100428.31;5088065;28;20067;-59
2022/12/23 04:06:32;;;;;;;26.77;20.92;;;;;;;10.42;87.48;100432.47;5091150;28;20031;-58
2022/12/23 04:08:58;;;;;;;26.85;20.05;;;;;;;10.40;87.31;100436.59;5090552;28;20039;-58
2022/12/23 04:11:23;;;;;;;34.22;21.45;;;;;;;10.41;87.40;100436.31;5088728;28;20027;-58
2022/12/23 04:13:48;;;;;;;33.92;21.42;;;;;;;10.39;87.24;100444.09;5090214;28;20073;-58
2022/12/23 04:16:15;;;;;;;31.15;22.33;;;;;;;10.43;87.37;100447.19;5089821;28;20080;-58
2022/12/23 04:18:40;;;;;;;29.67;22.23;;;;;;;10.41;87.37;100444.66;5088919;28;20027;-58
2022/12/23 04:21:08;;;;;;;30.38;21.27;;;;;;;10.43;87.35;100447.19;5090575;28;20123;-58
2022/12/23 04:23:34;;;;;;;31.33;21.50;;;;;;;10.45;87.34;100445.84;5089151;28;20036;-58
2022/12/23 04:25:59;;;;;;;27.45;21.25;;;;;;;10.42;87.13;100451.91;5091136;28;20035;-58
2022/12/23 04:28:24;;;;;;;27.85;21.00;;;;;;;10.41;87.37;100464.06;5088597;28;20045;-58
2022/12/23 04:30:49;;;;;;;29.70;21.13;;;;;;;10.41;87.43;100466.84;5088948;28;20447;-57
2022/12/23 04:33:15;;;;;;;27.08;21.55;;;;;;;10.43;87.15;100469.38;5089836;28;20043;-57
2022/12/23 04:35:40;;;;;;;27.58;22.02;;;;;;;10.45;87.51;100467.16;5090555;28;20140;-57
2022/12/23 04:38:06;;;;;;;29.88;21.40;;;;;;;10.43;87.11;100475.75;5090170;28;20062;-57
2022/12/23 04:40:31;;;;;;;26.90;21.17;;;;;;;10.45;87.32;100467.16;5090560;28;20126;-57
2022/12/23 04:42:56;;;;;;;28.30;20.80;;;;;;;10.43;87.05;100459.13;5091319;28;20527;-58
2022/12/23 04:45:21;;;;;;;23.67;20.27;;;;;;;10.41;87.13;100464.06;5083708;28;20027;-57
2022/12/23 04:47:47;;;;;;;30.88;21.83;;;;;;;10.42;87.05;100457.44;5071145;28;20052;-58
2022/12/23 04:50:14;;;;;;;30.73;22.02;;;;;;;10.43;86.94;100456.34;5070644;28;20020;-58
2022/12/23 04:52:40;;;;;;;33.85;22.52;;;;;;;10.41;86.89;100446.59;5076730;28;20490;-58
2022/12/23 04:55:06;;;;;;;31.65;22.13;;;;;;;10.37;87.20;100449.06;5091309;28;20036;-57
2022/12/23 04:57:31;;;;;;;30.15;21.60;;;;;;;10.42;87.23;100445.53;5091627;28;20027;-58
2022/12/23 04:59:56;;;;;;;27.73;21.27;;;;;;;10.40;87.15;100434.66;5090558;28;20028;-58
2022/12/23 05:02:22;;;;;;;32.85;21.85;;;;;;;10.42;86.85;100440.81;5089746;28;20527;-58
2022/12/23 05:04:47;;;;;;;28.35;21.17;;;;;;;10.42;87.08;100432.47;5085274;28;20032;-58
2022/12/23 05:07:12;;;;;;;25.40;20.58;;;;;;;10.43;86.90;100428.59;5089650;28;20447;-58
2022/12/23 05:09:38;;;;;;;24.55;18.85;;;;;;;10.43;86.87;100442.47;5090958;28;20760;-58
2022/12/23 05:12:03;;;;;;;24.48;20.15;;;;;;;10.45;87.02;100439.41;5089578;28;20379;-58
2022/12/23 05:14:28;;;;;;;26.90;19.00;;;;;;;10.45;86.87;100445.84;5090743;28;20052;-58
2022/12/23 05:16:54;;;;;;;27.35;18.77;;;;;;;10.43;86.74;100445.25;5090831;28;20031;-58
2022/12/23 05:19:19;;;;;;;25.10;18.95;;;;;;;10.44;86.77;100446.91;5089947;28;20584;-57
2022/12/23 05:21:44;;;;;;;30.05;19.95;;;;;;;10.41;86.89;100455.75;5086922;28;20055;-58
2022/12/23 05:24:09;;;;;;;26.48;19.20;;;;;;;10.46;86.80;100469.69;5090764;28;20040;-58
2022/12/23 05:26:35;;;;;;;27.10;20.08;;;;;;;10.46;86.84;100474.41;5088349;28;20028;-59
2022/12/23 05:29:00;;;;;;;27.33;20.05;;;;;;;10.43;86.70;100483.25;5070402;28;20108;-57
2022/12/23 05:31:25;;;;;;;22.75;17.77;;;;;;;10.45;86.62;100487.47;5070208;28;20028;-58
2022/12/23 05:33:51;;;;;;;25.70;19.95;;;;;;;10.44;86.74;100485.75;5069608;28;20043;-58
2022/12/23 05:36:16;;;;;;;25.58;18.52;;;;;;;10.48;86.75;100488.84;5070393;28;20411;-57
2022/12/23 05:38:41;;;;;;;27.45;19.52;;;;;;;10.47;86.74;100488.00;5077184;28;20032;-57
2022/12/23 05:41:07;;;;;;;27.63;20.20;;;;;;;10.48;86.64;100492.47;5089732;28;20486;-59
2022/12/23 05:43:32;;;;;;;28.45;20.67;;;;;;;10.45;86.75;100506.00;5088901;28;20044;-58
2022/12/23 05:45:57;;;;;;;28.88;20.65;;;;;;;10.44;86.71;100510.72;5090556;28;20107;-58
2022/12/23 05:48:23;;;;;;;26.40;21.05;;;;;;;10.46;86.76;100502.16;5089606;28;20028;-58
2022/12/23 05:50:50;;;;;;;28.58;20.05;;;;;;;10.45;86.70;100506.00;5090256;28;20077;-58
2022/12/23 05:53:16;;;;;;;30.38;20.50;;;;;;;10.46;86.73;100494.69;5086374;28;20468;-58
2022/12/23 05:55:42;;;;;;;26.13;19.75;;;;;;;10.44;86.59;100485.75;5089704;28;20048;-57
2022/12/23 05:58:07;;;;;;;32.33;21.65;;;;;;;10.47;86.63;100476.09;5088822;28;20392;-57
2022/12/23 06:00:33;;;;;;;27.55;20.38;;;;;;;10.48;86.61;100477.75;5089337;28;20047;-57
2022/12/23 06:02:58;;;;;;;25.55;19.85;;;;;;;10.48;86.67;100474.97;5084615;28;20035;-58
2022/12/23 06:05:23;;;;;;;29.95;22.85;;;;;;;10.48;86.36;100467.47;5088148;28;20031;-58
2022/12/23 06:07:49;;;;;;;28.80;21.48;;;;;;;10.47;86.62;100465.81;5087816;28;20032;-58
2022/12/23 06:10:14;;;;;;;32.38;22.63;;;;;;;10.47;86.56;100459.44;5086700;28;20103;-58
2022/12/23 06:12:39;;;;;;;32.90;23.48;;;;;;;10.48;86.34;100458.31;5089274;28;20031;-58
2022/12/23 06:15:06;;;;;;;36.13;25.73;;;;;;;10.47;86.31;100457.50;5089218;28;20024;-60
2022/12/23 06:17:31;;;;;;;33.90;24.15;;;;;;;10.47;86.40;100460.28;5086564;28;20031;-58
2022/12/23 06:19:56;;;;;;;34.13;26.60;;;;;;;10.47;86.25;100446.41;5076937;28;20034;-58
2022/12/23 06:22:22;;;;;;;34.30;26.88;;;;;;;10.47;86.17;100446.41;5088787;28;20020;-58
2022/12/23 06:24:48;;;;;;;38.00;27.60;;;;;;;10.46;86.25;100447.50;5089214;28;20023;-58
2022/12/23 06:27:13;;;;;;;33.90;26.65;;;;;;;10.48;86.32;100450.00;5088623;28;20069;-58
2022/12/23 06:29:39;;;;;;;37.60;27.38;;;;;;;10.46;86.65;100450.28;5085926;28;20040;-58
2022/12/23 06:32:04;;;;;;;40.67;28.88;;;;;;;10.47;86.21;100451.09;5073044;28;20044;-58
2022/12/23 06:34:30;;;;;;;43.30;29.13;;;;;;;10.47;86.26;100457.50;5081364;28;20063;-58
2022/12/23 06:36:55;;;;;;;39.05;28.15;;;;;;;10.47;86.06;100460.28;5084913;28;20126;-58
2022/12/23 06:39:21;;;;;;;39.47;27.90;;;;;;;10.46;86.18;100461.38;5087303;28;20176;-58
2022/12/23 06:41:46;;;;;;;38.03;27.50;;;;;;;10.45;86.33;100462.47;5080540;28;20028;-58
2022/12/23 06:44:11;;;;;;;39.60;28.80;;;;;;;10.47;86.15;100456.66;5082893;28;20116;-58
2022/12/23 06:46:37;;;;;;;39.35;28.52;;;;;;;10.46;86.27;100468.88;5087973;28;20123;-58
2022/12/23 06:49:05;;;;;;;38.35;28.23;;;;;;;10.46;86.23;100475.25;5082734;28;20032;-58
2022/12/23 06:51:30;;;;;;;39.35;29.30;;;;;;;10.46;86.23;100478.03;5087105;28;20050;-58
2022/12/23 06:54:00;;;;;;;40.65;29.80;;;;;;;10.47;85.91;100487.19;5088736;28;20028;-58
2022/12/23 06:56:26;;;;;;;38.38;30.17;;;;;;;10.46;85.98;100491.06;5088126;28;20395;-58
2022/12/23 06:58:51;;;;;;;44.03;30.80;;;;;;;10.46;86.20;100507.72;5083480;28;20028;-57
2022/12/23 07:01:18;;;;;;;42.47;30.63;;;;;;;10.46;86.04;100511.31;5082987;28;20044;-58
2022/12/23 07:03:43;;;;;;;42.50;30.55;;;;;;;10.46;85.99;100522.41;5086793;28;20177;-58
2022/12/23 07:06:09;;;;;;;42.40;30.10;;;;;;;10.47;86.06;100528.81;5084707;28;20106;-57
2022/12/23 07:08:34;;;;;;;44.42;31.83;;;;;;;10.44;86.27;100546.78;5079171;28;20064;-57
2022/12/23 07:11:02;;;;;;;42.90;31.30;;;;;;;10.44;86.25;100544.03;5086923;28;20024;-57
2022/12/23 07:13:27;;;;;;;47.88;31.52;;;;;;;10.48;86.07;100542.41;5089699;28;20504;-56
2022/12/23 07:15:52;;;;;;;46.75;32.08;;;;;;;10.46;86.15;100524.38;5091341;28;20472;-58
2022/12/23 07:18:18;;;;;;;47.67;32.65;;;;;;;10.46;86.16;100507.72;5091052;28;20046;-57
2022/12/23 07:20:45;;;;;;;47.85;32.83;;;;;;;10.46;85.92;100518.81;5083321;28;20035;-57
2022/12/23 07:23:11;;;;;;;47.53;32.10;;;;;;;10.44;86.02;100515.44;5083398;28;20050;-58
2022/12/23 07:25:36;;;;;;;47.83;31.77;;;;;;;10.47;86.25;100514.94;5082923;28;20029;-58
2022/12/23 07:28:02;;;;;;;44.72;32.38;;;;;;;10.42;86.25;100504.63;5070032;28;20028;-57
2022/12/23 07:30:28;;;;;;;44.75;31.65;;;;;;;10.43;86.12;100508.22;5069351;28;20051;-58
2022/12/23 07:32:53;;;;;;;47.08;33.28;;;;;;;10.44;86.20;100529.31;5087287;28;20081;-58
2022/12/23 07:35:18;;;;;;;47.42;32.22;;;;;;;10.45;86.30;100517.13;5084219;28;20500;-59
2022/12/23 07:37:44;;;;;;;45.83;32.80;;;;;;;10.45;86.08;100509.66;5083590;28;20024;-58
2022/12/23 07:40:10;;;;;;;46.83;32.00;;;;;;;10.45;86.16;100495.78;5073089;28;20040;-58
2022/12/23 07:42:36;;;;;;;53.53;33.58;;;;;;;10.41;86.21;100500.16;5074525;28;20380;-58
2022/12/23 07:45:02;;;;;;;48.13;32.20;;;;;;;10.43;86.07;100499.91;5080218;28;20038;-58
2022/12/23 07:47:27;;;;;;;46.92;32.92;;;;;;;10.43;86.15;100497.13;5085096;28;20478;-58
2022/12/23 07:49:52;;;;;;;48.75;32.83;;;;;;;10.41;86.44;100505.69;5086854;28;20055;-58
2022/12/23 07:52:18;;;;;;;51.65;31.75;;;;;;;10.41;86.07;100500.16;5087449;28;20038;-58
2022/12/23 07:54:43;;;;;;;48.72;33.35;;;;;;;10.43;86.07;100513.78;5087760;28;20024;-57
2022/12/23 07:57:08;;;;;;;47.65;32.08;;;;;;;10.43;86.05;100508.22;5089002;28;20059;-58
2022/12/23 07:59:34;;;;;;;51.25;33.80;;;;;;;10.43;86.12;100486.03;5087631;28;20115;-58
2022/12/23 08:01:59;;;;;;;55.58;34.45;;;;;;;10.44;85.86;100509.91;5086176;28;20032;-58
2022/12/23 08:04:24;;;;;;;54.60;33.05;;;;;;;10.43;85.96;100508.22;5090081;28;20055;-57
2022/12/23 08:06:50;;;;;;;51.75;32.50;;;;;;;10.43;85.88;100500.75;5085153;28;20101;-58
2022/12/23 08:09:15;;;;;;;50.30;30.73;;;;;;;10.44;85.90;100482.97;5084459;28;20028;-57
2022/12/23 08:11:40;;;;;;;47.13;29.10;;;;;;;10.43;85.92;100484.09;5089498;28;20078;-57
2022/12/23 08:14:06;;;;;;;49.03;31.27;;;;;;;10.42;86.14;100487.13;5089945;28;20036;-57
2022/12/23 08:16:32;;;;;;;45.63;29.33;;;;;;;10.43;85.82;100484.09;5088824;28;20103;-57
2022/12/23 08:18:57;;;;;;;44.20;28.83;;;;;;;10.42;85.72;100471.31;5083556;28;20027;-58
2022/12/23 08:21:22;;;;;;;41.05;28.13;;;;;;;10.42;85.74;100465.78;5073326;28;20475;-58
2022/12/23 08:23:48;;;;;;;41.60;26.50;;;;;;;10.44;85.77;100494.09;5088955;28;20505;-57
2022/12/23 08:26:16;;;;;;;43.33;27.50;;;;;;;10.42;85.58;100487.13;5087690;28;20040;-58
2022/12/23 08:28:43;;;;;;;37.75;26.60;;;;;;;10.41;85.68;100489.03;5090648;28;20043;-57
2022/12/23 08:31:09;;;;;;;39.58;26.50;;;;;;;10.41;85.66;100488.22;5088976;28;20031;-57
2022/12/23 08:33:36;;;;;;;41.95;25.38;;;;;;;10.43;85.55;100489.63;5090233;28;20148;-57
2022/12/23 08:36:03;;;;;;;40.33;24.75;;;;;;;10.38;85.67;100492.38;5081399;28;20056;-57
2022/12/23 08:38:29;;;;;;;39.45;23.23;;;;;;;10.41;85.76;100483.50;5083154;28;20032;-58
2022/12/23 08:40:54;;;;;;;39.55;23.83;;;;;;;10.42;85.56;100479.66;5089533;28;20821;-58
2022/12/23 08:43:22;;;;;;;38.00;24.45;;;;;;;10.42;85.63;100478.81;5089140;28;20433;-58
2022/12/23 08:45:48;;;;;;;35.40;22.75;;;;;;;10.40;85.68;100475.44;5081858;28;20082;-58
2022/12/23 08:48:13;;;;;;;37.55;21.90;;;;;;;10.42;85.44;100473.25;5088537;28;20036;-58
2022/12/23 08:50:40;;;;;;;34.63;22.55;;;;;;;10.39;85.57;100462.69;5089353;28;20036;-58
2022/12/23 08:53:06;;;;;;;35.05;21.35;;;;;;;10.39;85.52;100463.50;5074192;28;20418;-58
2022/12/23 08:55:40;;;;;;;34.70;21.33;;;;;;;10.43;85.65;100463.84;5082643;28;20024;-58
2022/12/23 08:58:07;;;;;;;30.92;20.67;;;;;;;10.40;85.71;100458.81;5089899;28;20111;-58
2022/12/23 09:00:33;;;;;;;34.08;21.88;;;;;;;10.42;85.49;100468.56;5089232;28;20028;-58
2022/12/23 09:02:59;;;;;;;34.78;21.23;;;;;;;10.39;85.40;100457.13;5089969;28;20036;-58
2022/12/23 09:05:24;;;;;;;33.50;20.15;;;;;;;10.38;85.57;100447.97;5089355;28;20031;-58
2022/12/23 09:07:50;;;;;;;30.95;19.48;;;;;;;10.38;85.39;100441.59;5090047;28;20069;-58
2022/12/23 09:10:15;;;;;;;29.52;20.05;;;;;;;10.34;85.44;100432.97;5081164;28;20043;-58
2022/12/23 09:12:40;;;;;;;26.92;18.35;;;;;;;10.37;85.29;100424.09;5089502;28;20093;-58
2022/12/23 09:15:06;;;;;;;26.75;17.65;;;;;;;10.37;85.48;100421.31;5088479;28;20039;-59
2022/12/23 09:17:31;;;;;;;30.33;17.98;;;;;;;10.37;85.28;100423.25;5087554;28;20467;-59
2022/12/23 09:19:57;;;;;;;30.50;17.65;;;;;;;10.39;85.47;100421.06;5088759;28;20105;-59
2022/12/23 09:22:22;;;;;;;30.73;16.70;;;;;;;10.36;85.22;100416.88;5089150;28;20020;-59
2022/12/23 09:24:47;;;;;;;26.38;17.17;;;;;;;10.34;85.33;100408.00;5086649;28;20035;-58
2022/12/23 09:27:12;;;;;;;22.92;16.70;;;;;;;10.36;85.55;100414.09;5076363;28;20103;-58
2022/12/23 09:29:38;;;;;;;24.58;15.68;;;;;;;10.38;85.21;100406.38;5089723;28;20130;-58
2022/12/23 09:32:03;;;;;;;24.67;15.13;;;;;;;10.36;85.49;100405.78;5089556;28;20024;-58
2022/12/23 09:34:28;;;;;;;23.25;14.43;;;;;;;10.39;85.15;100405.25;5088054;28;20032;-58
2022/12/23 09:36:54;;;;;;;21.85;13.98;;;;;;;10.35;85.13;100409.66;5087900;28;20046;-59
2022/12/23 09:39:19;;;;;;;26.67;13.85;;;;;;;10.35;85.29;100397.72;5088895;28;20480;-58
2022/12/23 09:42:00;;;;;;;20.48;12.85;;;;;;;10.34;85.28;100394.13;5085567;28;20037;-58
2022/12/23 09:44:37;;;;;;;21.60;12.60;;;;;;;10.35;85.20;100397.72;5069770;28;20089;-58
2022/12/23 09:47:08;;;;;;;22.10;12.93;;;;;;;10.26;85.45;100391.81;5087003;28;20067;-59
2022/12/23 09:49:38;;;;;;;21.88;12.45;;;;;;;10.26;85.23;100380.72;5088081;28;20032;-58
2022/12/23 09:52:08;;;;;;;20.55;12.32;;;;;;;10.28;85.47;100376.56;5088903;28;20489;-58
2022/12/23 09:54:44;;;;;;;18.63;12.20;;;;;;;10.27;85.55;100374.91;5083648;28;20044;-58
2022/12/23 09:57:21;;;;;;;23.38;12.75;;;;;;;10.30;85.56;100387.41;5088491;28;20104;-58
2022/12/23 10:00:03;;;;;;;21.48;11.93;;;;;;;10.29;85.60;100396.81;5085755;28;20571;-58
2022/12/23 10:02:43;;;;;;;21.42;12.38;;;;;;;10.32;85.62;100390.75;5086825;28;20056;-58
2022/12/23 10:05:27;;;;;;;21.02;11.75;;;;;;;10.31;85.41;100392.69;5088137;28;20498;-58
2022/12/23 10:08:00;;;;;;;23.40;11.52;;;;;;;10.30;85.38;100396.56;5085357;28;20042;-58
2022/12/23 10:10:38;;;;;;;19.48;11.60;;;;;;;10.32;85.39;100394.38;5088026;28;20031;-58
2022/12/23 10:13:08;;;;;;;20.48;11.93;;;;;;;10.30;85.40;100376.31;5088438;28;20479;-58
2022/12/23 10:15:40;;;;;;;21.65;12.85;;;;;;;10.30;85.44;100365.22;5086145;28;20127;-58
2022/12/23 10:18:17;;;;;;;17.20;12.05;;;;;;;10.30;85.22;100365.22;5067563;28;20024;-58
2022/12/23 10:20:52;;;;;;;22.70;13.48;;;;;;;10.31;85.09;100356.63;5072928;28;20089;-58
2022/12/23 10:23:30;;;;;;;23.13;13.52;;;;;;;10.28;85.10;100348.00;5086578;28;20104;-58
2022/12/23 10:25:55;;;;;;;22.30;13.65;;;;;;;10.27;85.27;100349.09;5067700;28;20020;-58
2022/12/23 10:28:21;;;;;;;20.88;13.57;;;;;;;10.25;85.30;100329.09;5067580;28;20042;-58
2022/12/23 10:31:01;;;;;;;24.35;13.98;;;;;;;10.28;85.52;100328.59;5087601;28;20039;-58
2022/12/23 10:33:49;;;;;;;19.27;12.38;;;;;;;10.29;85.42;100327.47;5082759;28;20031;-58
2022/12/23 10:36:26;;;;;;;20.50;12.48;;;;;;;10.28;85.46;100312.78;5073070;28;20043;-58
2022/12/23 10:39:15;;;;;;;23.10;12.13;;;;;;;10.28;85.64;100312.78;5088475;28;20020;-58
2022/12/23 10:41:54;;;;;;;16.00;10.48;;;;;;;10.30;85.45;100310.59;5080098;28;20039;-58
2022/12/23 10:44:52;;;;;;;19.17;11.48;;;;;;;10.36;85.22;100303.13;5087085;28;20051;-59
2022/12/23 10:47:23;;;;;;;20.35;11.10;;;;;;;10.36;84.99;100311.44;5087824;28;20032;-59
2022/12/23 10:50:00;;;;;;;21.23;11.13;;;;;;;10.31;85.26;100298.38;5087888;28;20503;-59
2022/12/23 10:52:33;;;;;;;18.05;10.90;;;;;;;10.30;85.15;100295.88;5092338;28;20032;-59
2022/12/23 10:54:58;;;;;;;15.15;10.20;;;;;;;10.31;85.07;100284.50;5089445;28;20028;-59
2022/12/23 10:57:24;;;;;;;18.23;11.02;;;;;;;10.33;85.17;100275.91;5082798;28;20035;-58
2022/12/23 10:59:50;;;;;;;15.43;8.15;;;;;;;10.42;85.51;100273.50;5090138;28;20055;-59
2022/12/23 11:02:57;;;;;;;15.15;10.25;;;;;;;10.42;85.38;100263.25;5083194;28;20548;-59
2022/12/23 11:05:28;;;;;;;13.57;9.25;;;;;;;10.39;84.99;100257.38;5084564;28;20028;-59
2022/12/23 11:07:53;;;;;;;14.75;9.73;;;;;;;10.36;84.83;100244.88;5089662;28;20565;-58
2022/12/23 11:10:24;;;;;;;16.38;9.55;;;;;;;10.38;85.05;100244.63;5090142;28;20038;-59
2022/12/23 11:12:51;;;;;;;17.75;10.10;;;;;;;10.52;85.04;100241.09;5084663;28;20324;-59
2022/12/23 11:15:26;;;;;;;14.65;8.93;;;;;;;10.55;84.92;100239.72;5087121;28;20070;-58
2022/12/23 11:18:11;;;;;;;14.77;8.75;;;;;;;10.53;84.81;100240.00;5087604;28;20059;-58
2022/12/23 11:20:39;;;;;;;16.00;8.95;;;;;;;10.50;84.45;100240.53;5086390;28;20048;-59
2022/12/23 11:23:21;;;;;;;14.20;8.95;;;;;;;10.44;84.72;100238.81;5079801;28;20558;-58
2022/12/23 11:25:46;;;;;;;17.33;8.80;;;;;;;10.42;84.69;100231.88;5088088;28;20028;-58
2022/12/23 11:28:14;;;;;;;14.05;8.30;;;;;;;10.44;84.74;100226.88;5088061;28;20039;-59
2022/12/23 11:30:52;;;;;;;12.65;8.55;;;;;;;10.42;84.98;100224.41;5092362;28;20123;-58
2022/12/23 11:33:27;;;;;;;20.15;9.15;;;;;;;10.40;84.68;100221.03;5089311;28;20510;-58
2022/12/23 11:36:24;;;;;;;22.55;14.25;;;;;;;10.44;85.14;100210.25;5086422;28;20112;-58
2022/12/23 11:39:08;;;;;;;28.60;17.67;;;;;;;10.41;85.17;100211.59;5086781;28;20043;-58
2022/12/23 11:41:42;;;;;;;27.55;14.80;;;;;;;10.37;84.92;100199.38;5083839;28;20506;-57
2022/12/23 11:44:25;;;;;;;18.67;10.98;;;;;;;10.39;85.00;100191.63;5090205;28;20035;-58
2022/12/23 11:46:50;;;;;;;;;;;;;;;10.49;84.72;100190.84;5089883;28;20433;-58